Ottoman Nobility — TCDA2 — position and weather

sailwx.info

Track history (hours):
 
Tides and Currents Weather Stations Pressure Air Temp Water Temp Dewpoint Dewpoint Depression Visibility Wind Speed Wind Dir Waves Ship Positions

Ottoman Nobility

Last reported at 2017-Aug-06 23:26 UTC. Time now 2017-Aug-17 17:36 UTC.
Position N 21°39' W 017°19'.
Warning: this ship's position is 10 days out of date.

Length 269 m; draft 8.8 m.

Type: Ship. MMSI: 271000773.

Date/timePositionNaut miles runAvg speedWind from/ knotsBaromVisibWave heightAir tempDewpointWater temp
2017-Aug-06 23:26N 21°39' W 017°19'34912.3
2017-Aug-05 19:03N 26°48' W 014°23'511.9
2017-Aug-05 18:36N 26°53' W 014°20'111.9
2017-Aug-05 18:30N 26°54' W 014°19'811.9
2017-Aug-05 17:52N 27°00' W 014°15'512.2
2017-Aug-05 17:30N 27°04' W 014°12'612.2
2017-Aug-05 17:00N 27°09' W 014°08'612.1
2017-Aug-05 16:30N 27°14' W 014°05'812.4
2017-Aug-05 15:53N 27°21' W 013°60'512.6
2017-Aug-05 15:30N 27°25' W 013°57'612.5
2017-Aug-05 15:00N 27°30' W 013°53'612.2
2017-Aug-05 14:30N 27°35' W 013°49'612.3
2017-Aug-05 14:00N 27°40' W 013°46'612.6
2017-Aug-05 13:30N 27°46' W 013°42'613.1
2017-Aug-05 13:01N 27°51' W 013°38'714.7
2017-Aug-05 12:31N 27°57' W 013°33'714.6
2017-Aug-05 12:01N 28°03' W 013°28'714.6
2017-Aug-05 11:30N 28°09' W 013°24'612.9
2017-Aug-05 11:00N 28°15' W 013°20'612.1
2017-Aug-05 10:30N 28°20' W 013°16'612.2
2017-Aug-05 10:00N 28°25' W 013°12'612.2
2017-Aug-05 09:30N 28°30' W 013°09'612.1
2017-Aug-05 09:00N 28°35' W 013°05'611.8
2017-Aug-05 08:30N 28°40' W 013°01'612.0
2017-Aug-05 08:00N 28°44' W 012°57'612.2
2017-Aug-05 07:30N 28°49' W 012°53'612.2
2017-Aug-05 07:00N 28°54' W 012°49'612.1
2017-Aug-05 06:30N 28°60' W 012°45'612.3
2017-Aug-05 06:00N 29°05' W 012°41'912.2
2017-Aug-05 05:14N 29°13' W 012°36'6612.0
2017-Aug-04 23:41N 30°08' W 011°54'211.3
2017-Aug-04 23:29N 30°10' W 011°52'611.5
2017-Aug-04 23:00N 30°15' W 011°49'611.7
2017-Aug-04 22:30N 30°20' W 011°45'611.6
2017-Aug-04 22:00N 30°24' W 011°41'611.4
2017-Aug-04 21:30N 30°29' W 011°38'1611.6
2017-Aug-04 20:08N 30°43' W 011°28'311.9
2017-Aug-04 19:51N 30°46' W 011°26'612.0
2017-Aug-04 19:20N 30°51' W 011°22'1212.3
2017-Aug-04 18:22N 31°00' W 011°14'412.3
2017-Aug-04 18:00N 31°04' W 011°11'612.1
2017-Aug-04 17:30N 31°09' W 011°07'611.9
2017-Aug-04 17:00N 31°14' W 011°03'611.6
2017-Aug-04 16:30N 31°19' W 010°60'611.6
2017-Aug-04 16:00N 31°24' W 010°56'611.5
2017-Aug-04 15:30N 31°29' W 010°52'612.2
2017-Aug-04 15:00N 31°34' W 010°48'1414.3
2017-Aug-04 14:00N 31°46' W 010°40'612.5
2017-Aug-04 13:30N 31°52' W 010°36'1111.7
2017-Aug-04 12:36N 32°01' W 010°29'111.8
2017-Aug-04 12:30N 32°01' W 010°29'611.7
2017-Aug-04 12:00N 32°06' W 010°25'611.9
2017-Aug-04 11:30N 32°11' W 010°21'612.2
2017-Aug-04 11:00N 32°16' W 010°16'612.0
2017-Aug-04 10:30N 32°21' W 010°12'711.9
2017-Aug-04 09:54N 32°27' W 010°07'511.9
2017-Aug-04 09:30N 32°31' W 010°04'811.7
2017-Aug-04 08:49N 32°37' W 009°59'611.7
2017-Aug-04 08:16N 32°43' W 009°54'811.7
2017-Aug-04 07:35N 32°49' W 009°49'111.8
2017-Aug-04 07:29N 32°50' W 009°48'4611.9
2017-Aug-04 03:39N 33°24' W 009°11'211.9
2017-Aug-04 03:30N 33°25' W 009°10'1212.0
2017-Aug-04 02:30N 33°34' W 008°60'10412.2
2017-Aug-03 18:01N 34°49' W 007°34'112.5
2017-Aug-03 17:56N 34°50' W 007°33'512.5
2017-Aug-03 17:30N 34°54' W 007°28'3011.6
2017-Aug-03 14:53N 35°16' W 007°04'1 1.6
2017-Aug-03 13:58N 35°18' W 007°03'1 1.6
2017-Aug-03 13:17N 35°19' W 007°04'6 1.2
2017-Aug-03 08:20N 35°24' W 007°07'0 1.2
2017-Aug-03 08:00N 35°24' W 007°07'1 1.3
2017-Aug-03 07:30N 35°25' W 007°07'1 1.2
2017-Aug-03 06:58N 35°25' W 007°08'0 0.4
2017-Aug-03 06:30N 35°26' W 007°08'0 0.5
2017-Aug-03 05:34N 35°26' W 007°08'0 0.5
2017-Aug-03 05:30N 35°26' W 007°08'0 0.6
2017-Aug-03 05:00N 35°26' W 007°07'0 0.7
2017-Aug-03 04:30N 35°27' W 007°07'0 0.7
2017-Aug-03 04:00N 35°27' W 007°07'0 0.9
2017-Aug-03 03:30N 35°27' W 007°07'1 0.9
2017-Aug-03 02:26N 35°28' W 007°06'2 1.6
2017-Aug-03 01:22N 35°30' W 007°06'1 1.8
2017-Aug-03 00:40N 35°31' W 007°05'0 1.8
2017-Aug-03 00:27N 35°32' W 007°05'1 1.5
2017-Aug-02 23:59N 35°32' W 007°05'2 3.6
2017-Aug-02 23:29N 35°33' W 007°03'2811.6
2017-Aug-02 21:06N 35°48' W 006°34'111.4
2017-Aug-02 21:00N 35°48' W 006°33'711.6
2017-Aug-02 20:25N 35°52' W 006°26'711.7
2017-Aug-02 19:49N 35°56' W 006°19'3510.9
2017-Aug-02 16:38N 35°58' W 005°36'1 9.0
2017-Aug-02 16:30N 35°58' W 005°34'4 8.4
2017-Aug-02 16:00N 35°59' W 005°29'4 7.7
2017-Aug-02 15:30N 36°01' W 005°25'5 9.4
2017-Aug-02 15:00N 36°05' W 005°23'2 1.5
2017-Aug-02 13:29N 36°08' W 005°22'0 0.0
2017-Aug-02 12:59N 36°08' W 005°22'0 0.0
2017-Aug-02 12:23N 36°08' W 005°22'0 0.0
2017-Aug-02 11:59N 36°08' W 005°22'0 0.1
2017-Aug-02 11:29N 36°08' W 005°22'0 0.0
2017-Aug-02 10:59N 36°08' W 005°22'0 0.0
2017-Aug-02 10:29N 36°08' W 005°22'0 0.1
2017-Aug-02 09:59N 36°08' W 005°22'0 0.0
2017-Aug-02 09:26N 36°08' W 005°22'0 0.0
2017-Aug-02 08:59N 36°08' W 005°22'0 0.0
2017-Aug-02 08:29N 36°08' W 005°22'0 0.0
2017-Aug-02 07:59N 36°08' W 005°22'0 0.1
2017-Aug-02 05:44N 36°07' W 005°22'0 0.1
2017-Aug-02 05:29N 36°07' W 005°22'0 0.0
2017-Aug-02 04:59N 36°07' W 005°22'0 0.1
2017-Aug-02 04:20N 36°07' W 005°22'0 0.1
2017-Aug-02 03:47N 36°07' W 005°22'0 0.1
2017-Aug-02 03:20N 36°07' W 005°22'0 0.0
2017-Aug-02 02:50N 36°07' W 005°22'0 0.0
2017-Aug-02 02:29N 36°07' W 005°22'0 0.0
2017-Aug-02 01:59N 36°07' W 005°22'  
Track history (hours):
 
Tides and Currents Weather Stations Pressure Air Temp Water Temp Dewpoint Dewpoint Depression Visibility Wind Speed Wind Dir Waves Ship Positions

Ottoman Nobility

Last reported at 2017-Aug-06 23:26 UTC. Time now 2017-Aug-17 17:36 UTC.
Position N 21°39' W 017°19'.
Warning: this ship's position is 10 days out of date.

Length 269 m; draft 8.8 m.

Type: Ship. MMSI: 271000773.

Date/timePositionNaut miles runAvg speedWind from/ knotsBaromVisibWave heightAir tempDewpointWater temp
2017-Aug-06 23:26N 21°39' W 017°19'34912.3
2017-Aug-05 19:03N 26°48' W 014°23'511.9
2017-Aug-05 18:36N 26°53' W 014°20'111.9
2017-Aug-05 18:30N 26°54' W 014°19'811.9
2017-Aug-05 17:52N 27°00' W 014°15'512.2
2017-Aug-05 17:30N 27°04' W 014°12'612.2
2017-Aug-05 17:00N 27°09' W 014°08'612.1
2017-Aug-05 16:30N 27°14' W 014°05'812.4
2017-Aug-05 15:53N 27°21' W 013°60'512.6
2017-Aug-05 15:30N 27°25' W 013°57'612.5
2017-Aug-05 15:00N 27°30' W 013°53'612.2
2017-Aug-05 14:30N 27°35' W 013°49'612.3
2017-Aug-05 14:00N 27°40' W 013°46'612.6
2017-Aug-05 13:30N 27°46' W 013°42'613.1
2017-Aug-05 13:01N 27°51' W 013°38'714.7
2017-Aug-05 12:31N 27°57' W 013°33'714.6
2017-Aug-05 12:01N 28°03' W 013°28'714.6
2017-Aug-05 11:30N 28°09' W 013°24'612.9
2017-Aug-05 11:00N 28°15' W 013°20'612.1
2017-Aug-05 10:30N 28°20' W 013°16'612.2
2017-Aug-05 10:00N 28°25' W 013°12'612.2
2017-Aug-05 09:30N 28°30' W 013°09'612.1
2017-Aug-05 09:00N 28°35' W 013°05'611.8
2017-Aug-05 08:30N 28°40' W 013°01'612.0
2017-Aug-05 08:00N 28°44' W 012°57'612.2
2017-Aug-05 07:30N 28°49' W 012°53'612.2
2017-Aug-05 07:00N 28°54' W 012°49'612.1
2017-Aug-05 06:30N 28°60' W 012°45'612.3
2017-Aug-05 06:00N 29°05' W 012°41'912.2
2017-Aug-05 05:14N 29°13' W 012°36'6612.0
2017-Aug-04 23:41N 30°08' W 011°54'211.3
2017-Aug-04 23:29N 30°10' W 011°52'611.5
2017-Aug-04 23:00N 30°15' W 011°49'611.7
2017-Aug-04 22:30N 30°20' W 011°45'611.6
2017-Aug-04 22:00N 30°24' W 011°41'611.4
2017-Aug-04 21:30N 30°29' W 011°38'1611.6
2017-Aug-04 20:08N 30°43' W 011°28'311.9
2017-Aug-04 19:51N 30°46' W 011°26'612.0
2017-Aug-04 19:20N 30°51' W 011°22'1212.3
2017-Aug-04 18:22N 31°00' W 011°14'412.3
2017-Aug-04 18:00N 31°04' W 011°11'612.1
2017-Aug-04 17:30N 31°09' W 011°07'611.9
2017-Aug-04 17:00N 31°14' W 011°03'611.6
2017-Aug-04 16:30N 31°19' W 010°60'611.6
2017-Aug-04 16:00N 31°24' W 010°56'611.5
2017-Aug-04 15:30N 31°29' W 010°52'612.2
2017-Aug-04 15:00N 31°34' W 010°48'1414.3
2017-Aug-04 14:00N 31°46' W 010°40'612.5
2017-Aug-04 13:30N 31°52' W 010°36'1111.7
2017-Aug-04 12:36N 32°01' W 010°29'111.8
2017-Aug-04 12:30N 32°01' W 010°29'611.7
2017-Aug-04 12:00N 32°06' W 010°25'611.9
2017-Aug-04 11:30N 32°11' W 010°21'612.2
2017-Aug-04 11:00N 32°16' W 010°16'612.0
2017-Aug-04 10:30N 32°21' W 010°12'711.9
2017-Aug-04 09:54N 32°27' W 010°07'511.9
2017-Aug-04 09:30N 32°31' W 010°04'811.7
2017-Aug-04 08:49N 32°37' W 009°59'611.7
2017-Aug-04 08:16N 32°43' W 009°54'811.7
2017-Aug-04 07:35N 32°49' W 009°49'111.8
2017-Aug-04 07:29N 32°50' W 009°48'4611.9
2017-Aug-04 03:39N 33°24' W 009°11'211.9
2017-Aug-04 03:30N 33°25' W 009°10'1212.0
2017-Aug-04 02:30N 33°34' W 008°60'10412.2
2017-Aug-03 18:01N 34°49' W 007°34'112.5
2017-Aug-03 17:56N 34°50' W 007°33'512.5
2017-Aug-03 17:30N 34°54' W 007°28'3011.6
2017-Aug-03 14:53N 35°16' W 007°04'1 1.6
2017-Aug-03 13:58N 35°18' W 007°03'1 1.6
2017-Aug-03 13:17N 35°19' W 007°04'6 1.2
2017-Aug-03 08:20N 35°24' W 007°07'0 1.2
2017-Aug-03 08:00N 35°24' W 007°07'1 1.3
2017-Aug-03 07:30N 35°25' W 007°07'1 1.2
2017-Aug-03 06:58N 35°25' W 007°08'0 0.4
2017-Aug-03 06:30N 35°26' W 007°08'0 0.5
2017-Aug-03 05:34N 35°26' W 007°08'0 0.5
2017-Aug-03 05:30N 35°26' W 007°08'0 0.6
2017-Aug-03 05:00N 35°26' W 007°07'0 0.7
2017-Aug-03 04:30N 35°27' W 007°07'0 0.7
2017-Aug-03 04:00N 35°27' W 007°07'0 0.9
2017-Aug-03 03:30N 35°27' W 007°07'1 0.9
2017-Aug-03 02:26N 35°28' W 007°06'2 1.6
2017-Aug-03 01:22N 35°30' W 007°06'1 1.8
2017-Aug-03 00:40N 35°31' W 007°05'0 1.8
2017-Aug-03 00:27N 35°32' W 007°05'1 1.5
2017-Aug-02 23:59N 35°32' W 007°05'2 3.6
2017-Aug-02 23:29N 35°33' W 007°03'2811.6
2017-Aug-02 21:06N 35°48' W 006°34'111.4
2017-Aug-02 21:00N 35°48' W 006°33'711.6
2017-Aug-02 20:25N 35°52' W 006°26'711.7
2017-Aug-02 19:49N 35°56' W 006°19'3510.9
2017-Aug-02 16:38N 35°58' W 005°36'1 9.0
2017-Aug-02 16:30N 35°58' W 005°34'4 8.4
2017-Aug-02 16:00N 35°59' W 005°29'4 7.7
2017-Aug-02 15:30N 36°01' W 005°25'5 9.4
2017-Aug-02 15:00N 36°05' W 005°23'2 1.5
2017-Aug-02 13:29N 36°08' W 005°22'0 0.0
2017-Aug-02 12:59N 36°08' W 005°22'0 0.0
2017-Aug-02 12:23N 36°08' W 005°22'0 0.0
2017-Aug-02 11:59N 36°08' W 005°22'0 0.1
2017-Aug-02 11:29N 36°08' W 005°22'0 0.0
2017-Aug-02 10:59N 36°08' W 005°22'0 0.0
2017-Aug-02 10:29N 36°08' W 005°22'0 0.1
2017-Aug-02 09:59N 36°08' W 005°22'0 0.0
2017-Aug-02 09:26N 36°08' W 005°22'0 0.0
2017-Aug-02 08:59N 36°08' W 005°22'0 0.0
2017-Aug-02 08:29N 36°08' W 005°22'0 0.0
2017-Aug-02 07:59N 36°08' W 005°22'0 0.1
2017-Aug-02 05:44N 36°07' W 005°22'0 0.1
2017-Aug-02 05:29N 36°07' W 005°22'0 0.0
2017-Aug-02 04:59N 36°07' W 005°22'0 0.1
2017-Aug-02 04:20N 36°07' W 005°22'0 0.1
2017-Aug-02 03:47N 36°07' W 005°22'0 0.1
2017-Aug-02 03:20N 36°07' W 005°22'0 0.0
2017-Aug-02 02:50N 36°07' W 005°22'0 0.0
2017-Aug-02 02:29N 36°07' W 005°22'0 0.0
2017-Aug-02 01:59N 36°07' W 005°22'  

Dump ship's entire track history